sensor_id;sensor_type;location;lat;lon;timestamp;temperature;humidity
8882;DHT22;4477;48.736;9.176;2022-09-17T00:00:46;8.00;99.90
8882;DHT22;4477;48.736;9.176;2022-09-17T00:03:14;8.00;99.90
8882;DHT22;4477;48.736;9.176;2022-09-17T00:05:41;8.00;99.90
8882;DHT22;4477;48.736;9.176;2022-09-17T00:08:12;7.90;99.90
8882;DHT22;4477;48.736;9.176;2022-09-17T00:10:41;8.00;99.90
8882;DHT22;4477;48.736;9.176;2022-09-17T00:13:09;7.90;99.90
8882;DHT22;4477;48.736;9.176;2022-09-17T00:15:39;7.90;99.90
8882;DHT22;4477;48.736;9.176;2022-09-17T00:18:06;7.90;99.90
8882;DHT22;4477;48.736;9.176;2022-09-17T00:20:37;7.80;99.90
8882;DHT22;4477;48.736;9.176;2022-09-17T00:23:04;7.70;99.90
8882;DHT22;4477;48.736;9.176;2022-09-17T00:25:32;7.70;99.90
8882;DHT22;4477;48.736;9.176;2022-09-17T00:27:59;7.70;99.90
8882;DHT22;4477;48.736;9.176;2022-09-17T00:30:26;7.60;99.90
8882;DHT22;4477;48.736;9.176;2022-09-17T00:32:52;7.60;99.90
8882;DHT22;4477;48.736;9.176;2022-09-17T00:35:22;7.60;99.90
8882;DHT22;4477;48.736;9.176;2022-09-17T00:37:49;7.60;99.90
8882;DHT22;4477;48.736;9.176;2022-09-17T00:40:16;7.50;99.90
8882;DHT22;4477;48.736;9.176;2022-09-17T00:42:44;7.50;99.90
8882;DHT22;4477;48.736;9.176;2022-09-17T00:45:12;7.60;99.90
8882;DHT22;4477;48.736;9.176;2022-09-17T00:47:41;7.60;99.90
8882;DHT22;4477;48.736;9.176;2022-09-17T00:50:14;7.70;99.90
8882;DHT22;4477;48.736;9.176;2022-09-17T00:52:44;7.80;99.90
8882;DHT22;4477;48.736;9.176;2022-09-17T00:55:15;7.90;99.90
8882;DHT22;4477;48.736;9.176;2022-09-17T00:57:44;8.00;99.90
8882;DHT22;4477;48.736;9.176;2022-09-17T01:00:16;8.00;99.90
8882;DHT22;4477;48.736;9.176;2022-09-17T01:02:44;8.00;99.90
8882;DHT22;4477;48.736;9.176;2022-09-17T01:05:12;8.00;99.90
8882;DHT22;4477;48.736;9.176;2022-09-17T01:07:58;7.90;99.90
8882;DHT22;4477;48.736;9.176;2022-09-17T01:10:38;7.90;99.90
8882;DHT22;4477;48.736;9.176;2022-09-17T01:13:18;7.80;99.90
8882;DHT22;4477;48.736;9.176;2022-09-17T01:15:50;7.60;99.90
8882;DHT22;4477;48.736;9.176;2022-09-17T01:18:26;7.60;99.90
8882;DHT22;4477;48.736;9.176;2022-09-17T01:21:22;7.50;99.90
8882;DHT22;4477;48.736;9.176;2022-09-17T01:24:11;7.50;99.90
8882;DHT22;4477;48.736;9.176;2022-09-17T01:29:56;7.50;99.90
8882;DHT22;4477;48.736;9.176;2022-09-17T01:32:29;7.50;99.90
8882;DHT22;4477;48.736;9.176;2022-09-17T01:35:03;7.50;99.90
8882;DHT22;4477;48.736;9.176;2022-09-17T01:37:35;7.40;99.90
8882;DHT22;4477;48.736;9.176;2022-09-17T01:40:07;7.40;99.90
8882;DHT22;4477;48.736;9.176;2022-09-17T01:42:40;7.30;99.90
8882;DHT22;4477;48.736;9.176;2022-09-17T01:45:14;7.30;99.90
8882;DHT22;4477;48.736;9.176;2022-09-17T01:47:47;7.40;99.90
8882;DHT22;4477;48.736;9.176;2022-09-17T01:50:18;7.40;99.90
8882;DHT22;4477;48.736;9.176;2022-09-17T01:52:48;7.50;99.90
8882;DHT22;4477;48.736;9.176;2022-09-17T01:55:17;7.60;99.90
8882;DHT22;4477;48.736;9.176;2022-09-17T01:57:50;7.60;99.90
8882;DHT22;4477;48.736;9.176;2022-09-17T02:00:19;7.80;99.90
8882;DHT22;4477;48.736;9.176;2022-09-17T02:02:52;7.70;99.90
8882;DHT22;4477;48.736;9.176;2022-09-17T02:05:27;7.60;99.90
8882;DHT22;4477;48.736;9.176;2022-09-17T02:07:57;7.60;99.90
8882;DHT22;4477;48.736;9.176;2022-09-17T02:10:28;7.60;99.90
8882;DHT22;4477;48.736;9.176;2022-09-17T02:12:58;7.70;99.90
8882;DHT22;4477;48.736;9.176;2022-09-17T02:15:29;7.80;99.90
8882;DHT22;4477;48.736;9.176;2022-09-17T02:18:03;7.80;99.90
8882;DHT22;4477;48.736;9.176;2022-09-17T02:20:37;7.90;99.90
8882;DHT22;4477;48.736;9.176;2022-09-17T02:23:09;7.80;99.90
8882;DHT22;4477;48.736;9.176;2022-09-17T02:25:42;7.80;99.90
8882;DHT22;4477;48.736;9.176;2022-09-17T02:28:13;7.80;99.90
8882;DHT22;4477;48.736;9.176;2022-09-17T02:30:43;7.70;99.90
8882;DHT22;4477;48.736;9.176;2022-09-17T02:33:12;7.70;99.90
8882;DHT22;4477;48.736;9.176;2022-09-17T02:35:40;7.70;99.90
8882;DHT22;4477;48.736;9.176;2022-09-17T02:38:08;7.70;99.90
8882;DHT22;4477;48.736;9.176;2022-09-17T02:40:40;7.70;99.90
8882;DHT22;4477;48.736;9.176;2022-09-17T02:43:15;7.70;99.90
8882;DHT22;4477;48.736;9.176;2022-09-17T02:45:53;7.80;99.90
8882;DHT22;4477;48.736;9.176;2022-09-17T02:48:47;7.90;99.90
8882;DHT22;4477;48.736;9.176;2022-09-17T02:51:28;7.90;99.90
8882;DHT22;4477;48.736;9.176;2022-09-17T02:54:06;7.90;99.90
8882;DHT22;4477;48.736;9.176;2022-09-17T02:56:43;7.90;99.90
8882;DHT22;4477;48.736;9.176;2022-09-17T02:59:15;7.80;99.90
8882;DHT22;4477;48.736;9.176;2022-09-17T03:01:49;7.80;99.90
8882;DHT22;4477;48.736;9.176;2022-09-17T03:04:20;7.70;99.90
8882;DHT22;4477;48.736;9.176;2022-09-17T03:06:51;7.60;99.90
8882;DHT22;4477;48.736;9.176;2022-09-17T03:09:18;7.50;99.90
8882;DHT22;4477;48.736;9.176;2022-09-17T03:11:45;7.30;99.90
8882;DHT22;4477;48.736;9.176;2022-09-17T03:14:12;7.20;99.90
8882;DHT22;4477;48.736;9.176;2022-09-17T03:16:38;7.10;99.90
8882;DHT22;4477;48.736;9.176;2022-09-17T03:19:05;7.00;99.90
8882;DHT22;4477;48.736;9.176;2022-09-17T03:21:34;7.10;99.90
8882;DHT22;4477;48.736;9.176;2022-09-17T03:24:01;7.00;99.90
8882;DHT22;4477;48.736;9.176;2022-09-17T03:26:28;7.00;99.90
8882;DHT22;4477;48.736;9.176;2022-09-17T03:28:54;6.90;99.90
8882;DHT22;4477;48.736;9.176;2022-09-17T03:31:23;6.90;99.90
8882;DHT22;4477;48.736;9.176;2022-09-17T03:33:49;6.90;99.90
8882;DHT22;4477;48.736;9.176;2022-09-17T03:36:16;6.90;99.90
8882;DHT22;4477;48.736;9.176;2022-09-17T03:38:44;6.90;99.90
8882;DHT22;4477;48.736;9.176;2022-09-17T03:41:11;7.00;99.90
8882;DHT22;4477;48.736;9.176;2022-09-17T03:43:38;7.10;99.90
8882;DHT22;4477;48.736;9.176;2022-09-17T03:46:05;7.20;99.90
8882;DHT22;4477;48.736;9.176;2022-09-17T03:48:32;7.30;99.90
8882;DHT22;4477;48.736;9.176;2022-09-17T03:51:02;7.30;99.90
8882;DHT22;4477;48.736;9.176;2022-09-17T03:53:28;7.30;99.90
8882;DHT22;4477;48.736;9.176;2022-09-17T03:55:58;7.30;99.90
8882;DHT22;4477;48.736;9.176;2022-09-17T03:58:26;7.30;99.90
8882;DHT22;4477;48.736;9.176;2022-09-17T04:00:53;7.20;99.90
8882;DHT22;4477;48.736;9.176;2022-09-17T04:03:23;7.10;99.90
8882;DHT22;4477;48.736;9.176;2022-09-17T04:05:50;7.00;99.90
8882;DHT22;4477;48.736;9.176;2022-09-17T04:08:17;6.90;99.90
8882;DHT22;4477;48.736;9.176;2022-09-17T04:10:44;6.90;99.90
8882;DHT22;4477;48.736;9.176;2022-09-17T04:13:14;6.90;99.90
8882;DHT22;4477;48.736;9.176;2022-09-17T04:15:41;7.00;99.90
8882;DHT22;4477;48.736;9.176;2022-09-17T04:18:08;7.10;99.90
8882;DHT22;4477;48.736;9.176;2022-09-17T04:20:35;7.10;99.90
8882;DHT22;4477;48.736;9.176;2022-09-17T04:23:03;7.10;99.90
8882;DHT22;4477;48.736;9.176;2022-09-17T04:25:31;7.00;99.90
8882;DHT22;4477;48.736;9.176;2022-09-17T04:27:58;6.90;99.90
8882;DHT22;4477;48.736;9.176;2022-09-17T04:30:26;6.90;99.90
8882;DHT22;4477;48.736;9.176;2022-09-17T04:32:53;6.90;99.90
8882;DHT22;4477;48.736;9.176;2022-09-17T04:35:20;6.80;99.90
8882;DHT22;4477;48.736;9.176;2022-09-17T04:37:53;6.80;99.90
8882;DHT22;4477;48.736;9.176;2022-09-17T04:40:20;6.90;99.90
8882;DHT22;4477;48.736;9.176;2022-09-17T04:42:47;6.90;99.90
8882;DHT22;4477;48.736;9.176;2022-09-17T04:45:14;6.90;99.90
8882;DHT22;4477;48.736;9.176;2022-09-17T04:47:42;6.90;99.90
8882;DHT22;4477;48.736;9.176;2022-09-17T04:50:09;6.90;99.90
8882;DHT22;4477;48.736;9.176;2022-09-17T04:52:36;7.00;99.90
8882;DHT22;4477;48.736;9.176;2022-09-17T04:55:07;7.10;99.90
8882;DHT22;4477;48.736;9.176;2022-09-17T04:57:34;7.10;99.90
8882;DHT22;4477;48.736;9.176;2022-09-17T05:00:02;7.20;99.90
8882;DHT22;4477;48.736;9.176;2022-09-17T05:02:29;7.30;99.90
8882;DHT22;4477;48.736;9.176;2022-09-17T05:04:57;7.40;99.90
8882;DHT22;4477;48.736;9.176;2022-09-17T05:07:24;7.40;99.90
8882;DHT22;4477;48.736;9.176;2022-09-17T05:09:51;7.40;99.90
8882;DHT22;4477;48.736;9.176;2022-09-17T05:12:18;7.40;99.90
8882;DHT22;4477;48.736;9.176;2022-09-17T05:14:45;7.40;99.90
8882;DHT22;4477;48.736;9.176;2022-09-17T05:17:12;7.50;99.90
8882;DHT22;4477;48.736;9.176;2022-09-17T05:19:39;7.60;99.90
8882;DHT22;4477;48.736;9.176;2022-09-17T05:22:07;7.50;99.90
8882;DHT22;4477;48.736;9.176;2022-09-17T05:24:34;7.40;99.90
8882;DHT22;4477;48.736;9.176;2022-09-17T05:27:03;7.40;99.90
8882;DHT22;4477;48.736;9.176;2022-09-17T05:29:30;7.40;99.90
8882;DHT22;4477;48.736;9.176;2022-09-17T05:31:57;7.30;99.90
8882;DHT22;4477;48.736;9.176;2022-09-17T05:34:24;7.40;99.90
8882;DHT22;4477;48.736;9.176;2022-09-17T05:36:51;7.40;99.90
8882;DHT22;4477;48.736;9.176;2022-09-17T05:39:19;7.50;99.90
8882;DHT22;4477;48.736;9.176;2022-09-17T05:41:50;7.40;99.90
8882;DHT22;4477;48.736;9.176;2022-09-17T05:44:17;7.30;99.90
8882;DHT22;4477;48.736;9.176;2022-09-17T05:46:44;7.30;99.90
8882;DHT22;4477;48.736;9.176;2022-09-17T05:49:11;7.40;99.90
8882;DHT22;4477;48.736;9.176;2022-09-17T05:51:39;7.30;99.90
8882;DHT22;4477;48.736;9.176;2022-09-17T05:54:06;7.30;99.90
8882;DHT22;4477;48.736;9.176;2022-09-17T05:56:35;7.30;99.90
8882;DHT22;4477;48.736;9.176;2022-09-17T05:59:02;7.40;99.90
8882;DHT22;4477;48.736;9.176;2022-09-17T06:01:29;7.40;99.90
8882;DHT22;4477;48.736;9.176;2022-09-17T06:03:56;7.50;99.90
8882;DHT22;4477;48.736;9.176;2022-09-17T06:06:23;7.60;99.90
8882;DHT22;4477;48.736;9.176;2022-09-17T06:08:53;7.70;99.90
8882;DHT22;4477;48.736;9.176;2022-09-17T06:11:20;7.80;99.90
8882;DHT22;4477;48.736;9.176;2022-09-17T06:13:51;8.20;99.90
8882;DHT22;4477;48.736;9.176;2022-09-17T06:16:19;8.50;99.90
8882;DHT22;4477;48.736;9.176;2022-09-17T06:18:46;8.80;99.90
8882;DHT22;4477;48.736;9.176;2022-09-17T06:21:14;9.00;99.90
8882;DHT22;4477;48.736;9.176;2022-09-17T06:23:41;9.10;99.90
8882;DHT22;4477;48.736;9.176;2022-09-17T06:26:08;9.10;99.90
8882;DHT22;4477;48.736;9.176;2022-09-17T06:28:35;9.10;99.90
8882;DHT22;4477;48.736;9.176;2022-09-17T06:31:05;9.10;99.90
8882;DHT22;4477;48.736;9.176;2022-09-17T06:33:32;9.00;99.90
8882;DHT22;4477;48.736;9.176;2022-09-17T06:36:02;9.00;99.90
8882;DHT22;4477;48.736;9.176;2022-09-17T06:38:31;9.00;99.90
8882;DHT22;4477;48.736;9.176;2022-09-17T06:40:58;9.10;99.90
8882;DHT22;4477;48.736;9.176;2022-09-17T06:43:25;9.20;99.90
8882;DHT22;4477;48.736;9.176;2022-09-17T06:45:52;9.40;99.90
8882;DHT22;4477;48.736;9.176;2022-09-17T06:48:21;9.50;99.90
8882;DHT22;4477;48.736;9.176;2022-09-17T06:50:48;9.60;99.90
8882;DHT22;4477;48.736;9.176;2022-09-17T06:53:15;9.60;99.90
8882;DHT22;4477;48.736;9.176;2022-09-17T06:55:44;9.80;99.90
8882;DHT22;4477;48.736;9.176;2022-09-17T06:58:11;10.00;99.90
8882;DHT22;4477;48.736;9.176;2022-09-17T07:00:38;10.20;99.90
8882;DHT22;4477;48.736;9.176;2022-09-17T07:03:06;10.30;99.90
8882;DHT22;4477;48.736;9.176;2022-09-17T07:05:34;10.20;99.90
8882;DHT22;4477;48.736;9.176;2022-09-17T07:08:01;10.20;99.90
8882;DHT22;4477;48.736;9.176;2022-09-17T07:10:29;10.20;99.90
8882;DHT22;4477;48.736;9.176;2022-09-17T07:12:56;10.00;99.90
8882;DHT22;4477;48.736;9.176;2022-09-17T07:15:23;9.80;99.90
8882;DHT22;4477;48.736;9.176;2022-09-17T07:17:50;9.60;99.90
8882;DHT22;4477;48.736;9.176;2022-09-17T07:20:17;9.30;99.90
8882;DHT22;4477;48.736;9.176;2022-09-17T07:22:54;9.10;99.90
8882;DHT22;4477;48.736;9.176;2022-09-17T07:25:20;8.90;99.90
8882;DHT22;4477;48.736;9.176;2022-09-17T07:27:47;8.70;99.90
8882;DHT22;4477;48.736;9.176;2022-09-17T07:30:14;8.60;99.90
8882;DHT22;4477;48.736;9.176;2022-09-17T07:32:41;8.50;99.90
8882;DHT22;4477;48.736;9.176;2022-09-17T07:35:08;8.50;99.90
8882;DHT22;4477;48.736;9.176;2022-09-17T07:37:35;8.50;99.90
8882;DHT22;4477;48.736;9.176;2022-09-17T07:40:04;8.50;99.90
8882;DHT22;4477;48.736;9.176;2022-09-17T07:42:33;8.50;99.90
8882;DHT22;4477;48.736;9.176;2022-09-17T07:45:00;8.40;99.90
8882;DHT22;4477;48.736;9.176;2022-09-17T07:47:27;8.40;99.90
8882;DHT22;4477;48.736;9.176;2022-09-17T07:49:54;8.40;99.90
8882;DHT22;4477;48.736;9.176;2022-09-17T07:52:21;8.30;99.90
8882;DHT22;4477;48.736;9.176;2022-09-17T07:54:48;8.20;99.90
8882;DHT22;4477;48.736;9.176;2022-09-17T07:57:16;8.20;99.90
8882;DHT22;4477;48.736;9.176;2022-09-17T07:59:43;8.20;99.90
8882;DHT22;4477;48.736;9.176;2022-09-17T08:02:11;8.00;99.90
8882;DHT22;4477;48.736;9.176;2022-09-17T08:04:40;7.90;99.90
8882;DHT22;4477;48.736;9.176;2022-09-17T08:07:10;8.00;99.90
8882;DHT22;4477;48.736;9.176;2022-09-17T08:09:37;8.10;99.90
8882;DHT22;4477;48.736;9.176;2022-09-17T08:12:04;8.30;99.90
8882;DHT22;4477;48.736;9.176;2022-09-17T08:14:32;8.40;99.90
8882;DHT22;4477;48.736;9.176;2022-09-17T08:16:59;8.50;99.90
8882;DHT22;4477;48.736;9.176;2022-09-17T08:19:26;8.60;99.90
8882;DHT22;4477;48.736;9.176;2022-09-17T08:21:55;8.60;99.90
8882;DHT22;4477;48.736;9.176;2022-09-17T08:24:22;8.60;99.90
8882;DHT22;4477;48.736;9.176;2022-09-17T08:26:49;8.60;99.90
8882;DHT22;4477;48.736;9.176;2022-09-17T08:29:16;8.60;99.90
8882;DHT22;4477;48.736;9.176;2022-09-17T08:31:44;8.70;99.90
8882;DHT22;4477;48.736;9.176;2022-09-17T08:34:12;8.90;99.90
8882;DHT22;4477;48.736;9.176;2022-09-17T08:36:39;9.00;99.90
8882;DHT22;4477;48.736;9.176;2022-09-17T08:39:06;9.20;99.90
8882;DHT22;4477;48.736;9.176;2022-09-17T08:41:44;9.40;99.90
8882;DHT22;4477;48.736;9.176;2022-09-17T08:44:19;9.60;99.90
8882;DHT22;4477;48.736;9.176;2022-09-17T08:46:51;9.70;99.90
8882;DHT22;4477;48.736;9.176;2022-09-17T08:49:28;9.90;99.90
8882;DHT22;4477;48.736;9.176;2022-09-17T08:52:29;10.00;99.90
8882;DHT22;4477;48.736;9.176;2022-09-17T08:55:05;10.20;99.90
8882;DHT22;4477;48.736;9.176;2022-09-17T08:57:42;10.50;99.90
8882;DHT22;4477;48.736;9.176;2022-09-17T09:00:13;10.90;99.90
8882;DHT22;4477;48.736;9.176;2022-09-17T09:02:55;11.30;99.90
8882;DHT22;4477;48.736;9.176;2022-09-17T09:05:26;11.50;99.90
8882;DHT22;4477;48.736;9.176;2022-09-17T09:07:59;12.00;99.90
8882;DHT22;4477;48.736;9.176;2022-09-17T09:10:30;12.40;99.90
8882;DHT22;4477;48.736;9.176;2022-09-17T09:12:59;12.70;99.90
8882;DHT22;4477;48.736;9.176;2022-09-17T09:15:32;13.10;99.90
8882;DHT22;4477;48.736;9.176;2022-09-17T09:18:12;13.30;99.90
8882;DHT22;4477;48.736;9.176;2022-09-17T09:20:47;13.90;99.90
8882;DHT22;4477;48.736;9.176;2022-09-17T09:23:18;14.10;99.90
8882;DHT22;4477;48.736;9.176;2022-09-17T09:26:00;14.30;99.90
8882;DHT22;4477;48.736;9.176;2022-09-17T09:28:38;14.10;99.90
8882;DHT22;4477;48.736;9.176;2022-09-17T09:31:33;13.80;99.90
8882;DHT22;4477;48.736;9.176;2022-09-17T09:34:05;13.70;99.90
8882;DHT22;4477;48.736;9.176;2022-09-17T09:36:33;13.70;99.90
8882;DHT22;4477;48.736;9.176;2022-09-17T09:39:02;13.50;99.90
8882;DHT22;4477;48.736;9.176;2022-09-17T09:41:33;13.80;99.90
8882;DHT22;4477;48.736;9.176;2022-09-17T09:44:04;14.00;99.90
8882;DHT22;4477;48.736;9.176;2022-09-17T09:49:35;13.80;99.90
8882;DHT22;4477;48.736;9.176;2022-09-17T09:52:16;13.80;99.90
8882;DHT22;4477;48.736;9.176;2022-09-17T09:54:58;14.00;99.90
8882;DHT22;4477;48.736;9.176;2022-09-17T09:57:34;14.10;99.90
8882;DHT22;4477;48.736;9.176;2022-09-17T10:00:26;13.80;99.90
8882;DHT22;4477;48.736;9.176;2022-09-17T10:02:58;13.40;99.90
8882;DHT22;4477;48.736;9.176;2022-09-17T10:05:28;12.80;99.90
8882;DHT22;4477;48.736;9.176;2022-09-17T10:07:55;12.20;99.90
8882;DHT22;4477;48.736;9.176;2022-09-17T10:10:22;11.80;99.90
8882;DHT22;4477;48.736;9.176;2022-09-17T10:13:04;12.00;99.90
8882;DHT22;4477;48.736;9.176;2022-09-17T10:15:31;12.60;99.90
8882;DHT22;4477;48.736;9.176;2022-09-17T10:18:14;13.20;99.90
8882;DHT22;4477;48.736;9.176;2022-09-17T10:20:57;13.60;99.90
8882;DHT22;4477;48.736;9.176;2022-09-17T10:23:26;14.40;99.90
8882;DHT22;4477;48.736;9.176;2022-09-17T10:25:54;14.80;99.90
8882;DHT22;4477;48.736;9.176;2022-09-17T10:28:44;15.00;99.90
8882;DHT22;4477;48.736;9.176;2022-09-17T10:31:13;14.70;99.90
8882;DHT22;4477;48.736;9.176;2022-09-17T10:33:51;14.80;99.90
8882;DHT22;4477;48.736;9.176;2022-09-17T10:36:38;14.90;99.90
8882;DHT22;4477;48.736;9.176;2022-09-17T10:39:30;15.50;99.90
8882;DHT22;4477;48.736;9.176;2022-09-17T10:41:59;16.30;99.90
8882;DHT22;4477;48.736;9.176;2022-09-17T10:44:28;16.60;99.90
8882;DHT22;4477;48.736;9.176;2022-09-17T10:47:03;16.10;99.90
8882;DHT22;4477;48.736;9.176;2022-09-17T10:49:37;16.00;99.90
8882;DHT22;4477;48.736;9.176;2022-09-17T10:52:09;16.30;98.40
8882;DHT22;4477;48.736;9.176;2022-09-17T10:54:59;16.20;98.20
8882;DHT22;4477;48.736;9.176;2022-09-17T10:57:39;15.80;96.60
8882;DHT22;4477;48.736;9.176;2022-09-17T11:00:12;16.10;98.80
8882;DHT22;4477;48.736;9.176;2022-09-17T11:03:13;16.60;96.70
8882;DHT22;4477;48.736;9.176;2022-09-17T11:08:57;17.40;94.80
8882;DHT22;4477;48.736;9.176;2022-09-17T11:11:35;17.90;93.00
8882;DHT22;4477;48.736;9.176;2022-09-17T11:14:14;17.40;92.40
8882;DHT22;4477;48.736;9.176;2022-09-17T11:16:51;17.30;91.50
8882;DHT22;4477;48.736;9.176;2022-09-17T11:19:26;17.50;94.70
8882;DHT22;4477;48.736;9.176;2022-09-17T11:22:04;17.40;90.00
8882;DHT22;4477;48.736;9.176;2022-09-17T11:27:48;17.60;89.00
8882;DHT22;4477;48.736;9.176;2022-09-17T11:30:19;17.30;84.40
8882;DHT22;4477;48.736;9.176;2022-09-17T11:33:27;16.80;91.30
8882;DHT22;4477;48.736;9.176;2022-09-17T11:36:02;17.00;90.60
8882;DHT22;4477;48.736;9.176;2022-09-17T11:38:38;17.10;87.00
8882;DHT22;4477;48.736;9.176;2022-09-17T11:41:10;17.00;85.70
8882;DHT22;4477;48.736;9.176;2022-09-17T11:43:41;17.30;85.50
8882;DHT22;4477;48.736;9.176;2022-09-17T11:46:15;17.50;85.10
8882;DHT22;4477;48.736;9.176;2022-09-17T11:48:46;17.20;81.80
8882;DHT22;4477;48.736;9.176;2022-09-17T11:51:22;17.80;86.10
8882;DHT22;4477;48.736;9.176;2022-09-17T11:53:53;17.90;82.80
8882;DHT22;4477;48.736;9.176;2022-09-17T11:56:26;17.20;80.10
8882;DHT22;4477;48.736;9.176;2022-09-17T11:58:59;17.30;85.70
8882;DHT22;4477;48.736;9.176;2022-09-17T12:01:31;17.10;85.60
8882;DHT22;4477;48.736;9.176;2022-09-17T12:04:25;17.20;82.90
8882;DHT22;4477;48.736;9.176;2022-09-17T12:06:58;17.20;82.30
8882;DHT22;4477;48.736;9.176;2022-09-17T12:09:28;17.70;80.70
8882;DHT22;4477;48.736;9.176;2022-09-17T12:12:02;18.20;78.60
8882;DHT22;4477;48.736;9.176;2022-09-17T12:14:42;18.60;81.60
8882;DHT22;4477;48.736;9.176;2022-09-17T12:17:14;17.70;78.00
8882;DHT22;4477;48.736;9.176;2022-09-17T12:19:45;16.70;79.00
8882;DHT22;4477;48.736;9.176;2022-09-17T12:22:17;15.70;84.10
8882;DHT22;4477;48.736;9.176;2022-09-17T12:24:49;14.90;87.50
8882;DHT22;4477;48.736;9.176;2022-09-17T12:27:28;14.20;88.80
8882;DHT22;4477;48.736;9.176;2022-09-17T12:30:08;13.50;91.30
8882;DHT22;4477;48.736;9.176;2022-09-17T12:32:50;13.20;91.80
8882;DHT22;4477;48.736;9.176;2022-09-17T12:35:29;13.00;92.80
8882;DHT22;4477;48.736;9.176;2022-09-17T12:38:07;12.50;98.50
8882;DHT22;4477;48.736;9.176;2022-09-17T12:40:44;12.70;99.90
8882;DHT22;4477;48.736;9.176;2022-09-17T12:43:40;13.60;99.90
8882;DHT22;4477;48.736;9.176;2022-09-17T12:46:25;14.50;95.40
8882;DHT22;4477;48.736;9.176;2022-09-17T12:49:16;14.70;95.20
8882;DHT22;4477;48.736;9.176;2022-09-17T12:51:53;14.40;97.50
8882;DHT22;4477;48.736;9.176;2022-09-17T12:54:46;13.60;98.00
8882;DHT22;4477;48.736;9.176;2022-09-17T12:57:26;12.10;99.90
8882;DHT22;4477;48.736;9.176;2022-09-17T13:00:02;10.90;99.90
8882;DHT22;4477;48.736;9.176;2022-09-17T13:02:34;10.70;99.90
8882;DHT22;4477;48.736;9.176;2022-09-17T13:08:33;10.50;99.90
8882;DHT22;4477;48.736;9.176;2022-09-17T13:11:32;10.10;99.90
8882;DHT22;4477;48.736;9.176;2022-09-17T13:47:14;9.70;99.90
8882;DHT22;4477;48.736;9.176;2022-09-17T13:49:44;12.70;99.90
8882;DHT22;4477;48.736;9.176;2022-09-17T13:52:12;14.20;99.90
8882;DHT22;4477;48.736;9.176;2022-09-17T13:54:40;15.30;99.90
8882;DHT22;4477;48.736;9.176;2022-09-17T13:57:14;15.50;99.90
8882;DHT22;4477;48.736;9.176;2022-09-17T13:59:55;15.10;99.90
8882;DHT22;4477;48.736;9.176;2022-09-17T14:02:34;15.20;99.90
8882;DHT22;4477;48.736;9.176;2022-09-17T14:05:24;15.40;99.90
8882;DHT22;4477;48.736;9.176;2022-09-17T14:08:10;16.50;99.90
8882;DHT22;4477;48.736;9.176;2022-09-17T14:10:42;18.10;99.90
8882;DHT22;4477;48.736;9.176;2022-09-17T14:13:44;19.50;99.90
8882;DHT22;4477;48.736;9.176;2022-09-17T14:16:33;20.40;95.20
8882;DHT22;4477;48.736;9.176;2022-09-17T14:19:22;19.60;88.10
8882;DHT22;4477;48.736;9.176;2022-09-17T14:21:58;18.20;93.30
8882;DHT22;4477;48.736;9.176;2022-09-17T14:24:32;17.20;96.40
8882;DHT22;4477;48.736;9.176;2022-09-17T14:27:10;16.70;97.00
8882;DHT22;4477;48.736;9.176;2022-09-17T14:30:04;15.90;99.90
8882;DHT22;4477;48.736;9.176;2022-09-17T14:32:38;15.10;98.70
8882;DHT22;4477;48.736;9.176;2022-09-17T14:35:16;14.30;99.90
8882;DHT22;4477;48.736;9.176;2022-09-17T14:37:49;13.90;99.90
8882;DHT22;4477;48.736;9.176;2022-09-17T14:40:18;14.40;99.90
8882;DHT22;4477;48.736;9.176;2022-09-17T14:42:48;15.70;99.90
8882;DHT22;4477;48.736;9.176;2022-09-17T14:45:19;16.70;97.20
8882;DHT22;4477;48.736;9.176;2022-09-17T14:47:47;17.50;96.50
8882;DHT22;4477;48.736;9.176;2022-09-17T14:50:21;17.20;96.10
8882;DHT22;4477;48.736;9.176;2022-09-17T14:52:49;16.30;97.30
8882;DHT22;4477;48.736;9.176;2022-09-17T14:55:18;15.70;98.00
8882;DHT22;4477;48.736;9.176;2022-09-17T14:57:48;15.40;96.80
8882;DHT22;4477;48.736;9.176;2022-09-17T15:00:18;15.50;97.80
8882;DHT22;4477;48.736;9.176;2022-09-17T15:02:49;15.40;97.90
8882;DHT22;4477;48.736;9.176;2022-09-17T15:05:21;14.70;99.00
8882;DHT22;4477;48.736;9.176;2022-09-17T15:07:50;15.20;98.60
8882;DHT22;4477;48.736;9.176;2022-09-17T15:10:18;15.60;99.40
8882;DHT22;4477;48.736;9.176;2022-09-17T15:12:47;15.30;98.00
8882;DHT22;4477;48.736;9.176;2022-09-17T15:15:18;14.60;98.40
8882;DHT22;4477;48.736;9.176;2022-09-17T15:17:45;13.80;99.90
8882;DHT22;4477;48.736;9.176;2022-09-17T15:20:16;13.30;99.90
8882;DHT22;4477;48.736;9.176;2022-09-17T15:22:48;12.90;99.90
8882;DHT22;4477;48.736;9.176;2022-09-17T15:25:19;12.50;99.90
8882;DHT22;4477;48.736;9.176;2022-09-17T15:27:48;12.40;99.90
8882;DHT22;4477;48.736;9.176;2022-09-17T15:30:18;12.30;99.90
8882;DHT22;4477;48.736;9.176;2022-09-17T15:32:48;12.30;99.90
8882;DHT22;4477;48.736;9.176;2022-09-17T15:35:19;12.30;99.90
8882;DHT22;4477;48.736;9.176;2022-09-17T15:37:49;12.40;99.90
8882;DHT22;4477;48.736;9.176;2022-09-17T15:40:24;12.50;99.90
8882;DHT22;4477;48.736;9.176;2022-09-17T15:42:58;12.40;99.90
8882;DHT22;4477;48.736;9.176;2022-09-17T15:45:28;12.90;99.90
8882;DHT22;4477;48.736;9.176;2022-09-17T15:47:57;13.80;99.90
8882;DHT22;4477;48.736;9.176;2022-09-17T15:50:25;13.90;99.90
8882;DHT22;4477;48.736;9.176;2022-09-17T15:53:11;13.60;99.90
8882;DHT22;4477;48.736;9.176;2022-09-17T15:55:39;13.10;99.90
8882;DHT22;4477;48.736;9.176;2022-09-17T15:58:22;13.10;99.90
8882;DHT22;4477;48.736;9.176;2022-09-17T16:04:22;13.00;99.90
8882;DHT22;4477;48.736;9.176;2022-09-17T16:09:48;12.10;99.90
8882;DHT22;4477;48.736;9.176;2022-09-17T16:12:19;11.70;99.90
8882;DHT22;4477;48.736;9.176;2022-09-17T16:14:48;11.30;99.90
8882;DHT22;4477;48.736;9.176;2022-09-17T16:17:31;11.20;99.90
8882;DHT22;4477;48.736;9.176;2022-09-17T16:20:05;11.00;99.90
8882;DHT22;4477;48.736;9.176;2022-09-17T16:22:33;11.00;99.90
8882;DHT22;4477;48.736;9.176;2022-09-17T16:25:01;11.00;99.90
8882;DHT22;4477;48.736;9.176;2022-09-17T16:27:31;11.20;99.90
8882;DHT22;4477;48.736;9.176;2022-09-17T16:30:01;11.30;99.90
8882;DHT22;4477;48.736;9.176;2022-09-17T16:32:29;11.50;99.90
8882;DHT22;4477;48.736;9.176;2022-09-17T16:34:56;11.70;99.90
8882;DHT22;4477;48.736;9.176;2022-09-17T16:37:23;11.80;99.90
8882;DHT22;4477;48.736;9.176;2022-09-17T16:39:50;11.80;99.90
8882;DHT22;4477;48.736;9.176;2022-09-17T16:42:19;11.70;99.90
8882;DHT22;4477;48.736;9.176;2022-09-17T16:44:47;11.50;99.90
8882;DHT22;4477;48.736;9.176;2022-09-17T16:47:14;11.30;99.90
8882;DHT22;4477;48.736;9.176;2022-09-17T16:49:41;11.00;99.90
8882;DHT22;4477;48.736;9.176;2022-09-17T16:52:08;10.90;99.90
8882;DHT22;4477;48.736;9.176;2022-09-17T16:54:35;10.80;99.90
8882;DHT22;4477;48.736;9.176;2022-09-17T16:57:02;10.60;99.90
8882;DHT22;4477;48.736;9.176;2022-09-17T16:59:30;10.50;99.90
8882;DHT22;4477;48.736;9.176;2022-09-17T17:01:57;10.40;99.90
8882;DHT22;4477;48.736;9.176;2022-09-17T17:04:24;10.30;99.90
8882;DHT22;4477;48.736;9.176;2022-09-17T17:06:51;10.20;99.90
8882;DHT22;4477;48.736;9.176;2022-09-17T17:09:19;10.20;99.90
8882;DHT22;4477;48.736;9.176;2022-09-17T17:11:46;10.20;99.90
8882;DHT22;4477;48.736;9.176;2022-09-17T17:14:13;10.30;99.90
8882;DHT22;4477;48.736;9.176;2022-09-17T17:16:41;10.30;99.90
8882;DHT22;4477;48.736;9.176;2022-09-17T17:19:09;10.20;99.90
8882;DHT22;4477;48.736;9.176;2022-09-17T17:21:36;9.90;99.90
8882;DHT22;4477;48.736;9.176;2022-09-17T17:24:04;9.60;99.90
8882;DHT22;4477;48.736;9.176;2022-09-17T17:26:31;9.40;99.90
8882;DHT22;4477;48.736;9.176;2022-09-17T17:28:58;9.30;99.90
8882;DHT22;4477;48.736;9.176;2022-09-17T17:31:25;9.20;99.90
8882;DHT22;4477;48.736;9.176;2022-09-17T17:33:53;9.10;99.90